Time;durP1;ratioP1;P1;durP2;ratioP2;P2;SDS_P1;SDS_P2;PMS_P1;PMS_P2;Temp;Humidity;BMP_temperature;BMP_pressure;BME280_temperature;BME280_humidity;BME280_pressure;Samples;Min_cycle;Max_cycle;Signal;HPM_P1;HPM_P2
2022/11/02 00:00:16;;;;;;;7.03;5.70;;;11.30;99.90;;;;;;6142091;29;20283;-67
2022/11/02 00:03:21;;;;;;;8.77;5.65;;;11.30;99.90;;;;;;6142223;29;20320;-67
2022/11/02 00:06:27;;;;;;;7.72;5.63;;;11.30;99.90;;;;;;6142244;29;20300;-66
2022/11/02 00:09:32;;;;;;;9.48;6.22;;;11.40;99.90;;;;;;6141212;29;20457;-67
2022/11/02 00:12:37;;;;;;;8.70;5.38;;;11.40;99.90;;;;;;6118028;29;20300;-68
2022/11/02 00:15:42;;;;;;;5.60;5.10;;;11.30;99.90;;;;;;6118102;29;20462;-66
2022/11/02 00:18:49;;;;;;;6.95;5.22;;;11.30;99.90;;;;;;6118540;29;20272;-67
2022/11/02 00:21:57;;;;;;;7.20;5.22;;;11.40;99.90;;;;;;6118081;29;20580;-67
2022/11/02 00:25:05;;;;;;;5.93;5.25;;;11.40;99.90;;;;;;6117588;29;20271;-67
2022/11/02 00:28:13;;;;;;;5.32;4.85;;;11.40;99.90;;;;;;6117961;29;20300;-67
2022/11/02 00:31:18;;;;;;;5.55;5.13;;;11.50;99.90;;;;;;6118080;29;20272;-67
2022/11/02 00:34:23;;;;;;;6.00;4.85;;;11.50;99.90;;;;;;6117542;29;20276;-67
2022/11/02 00:37:29;;;;;;;4.57;4.22;;;11.50;99.90;;;;;;6101367;29;20454;-67
2022/11/02 00:40:34;;;;;;;4.50;4.20;;;11.50;99.90;;;;;;6101030;29;20454;-67
2022/11/02 00:43:39;;;;;;;4.20;3.90;;;11.50;99.90;;;;;;6117447;29;20276;-67
2022/11/02 00:46:44;;;;;;;4.47;4.18;;;11.50;99.90;;;;;;6117099;29;20291;-66
2022/11/02 00:49:49;;;;;;;4.15;3.80;;;11.50;99.90;;;;;;6100469;29;20571;-67
2022/11/02 00:52:56;;;;;;;3.97;3.75;;;11.50;99.90;;;;;;6100496;29;20272;-67
2022/11/02 00:56:02;;;;;;;4.60;4.20;;;11.50;99.90;;;;;;6100676;29;20272;-66
2022/11/02 00:59:07;;;;;;;4.13;3.83;;;11.50;99.90;;;;;;6100805;29;20275;-66
2022/11/02 01:02:12;;;;;;;3.78;3.60;;;11.50;99.90;;;;;;6100244;29;20268;-66
2022/11/02 01:05:16;;;;;;;4.25;4.05;;;11.50;99.90;;;;;;6117171;29;20276;-66
2022/11/02 01:08:24;;;;;;;4.53;4.22;;;11.60;99.90;;;;;;6117063;29;20288;-66
2022/11/02 01:11:30;;;;;;;4.05;3.95;;;11.50;99.90;;;;;;6129129;29;20294;-66
2022/11/02 01:14:36;;;;;;;4.45;4.07;;;11.50;99.90;;;;;;6140320;29;20271;-66
2022/11/02 01:17:41;;;;;;;4.32;3.92;;;11.60;99.90;;;;;;6140107;29;20386;-67
2022/11/02 01:20:45;;;;;;;4.65;4.20;;;11.60;99.90;;;;;;6140315;29;20276;-67
2022/11/02 01:23:51;;;;;;;4.55;4.35;;;11.60;99.90;;;;;;6140225;29;20267;-66
2022/11/02 01:26:56;;;;;;;5.00;4.70;;;11.60;99.90;;;;;;6140019;29;20479;-67
2022/11/02 01:30:02;;;;;;;4.55;4.35;;;11.60;99.90;;;;;;6140426;29;20271;-67
2022/11/02 01:33:08;;;;;;;4.63;4.32;;;11.70;99.90;;;;;;6140543;29;20271;-66
2022/11/02 01:36:14;;;;;;;4.90;4.50;;;11.70;99.90;;;;;;6123865;29;20279;-67
2022/11/02 01:39:21;;;;;;;5.88;4.18;;;11.70;99.90;;;;;;6139912;29;20271;-67
2022/11/02 01:42:27;;;;;;;4.95;4.53;;;11.70;99.90;;;;;;6140515;29;20271;-67
2022/11/02 01:45:32;;;;;;;4.97;4.50;;;11.70;99.90;;;;;;6124587;29;20271;-67
2022/11/02 01:48:41;;;;;;;4.82;4.32;;;11.70;99.90;;;;;;6145251;29;20287;-67
2022/11/02 01:51:51;;;;;;;5.38;4.40;;;11.70;99.90;;;;;;6145303;29;20280;-68
2022/11/02 01:55:01;;;;;;;5.57;4.95;;;11.70;99.90;;;;;;6144843;29;20267;-67
2022/11/02 01:58:11;;;;;;;5.55;5.05;;;11.70;99.90;;;;;;6144743;29;20279;-67
2022/11/02 02:01:16;;;;;;;5.43;5.03;;;11.80;99.90;;;;;;6128048;29;20276;-67
2022/11/02 02:04:21;;;;;;;6.18;5.55;;;11.80;99.90;;;;;;6127938;29;20271;-67
2022/11/02 02:07:27;;;;;;;6.60;5.07;;;11.70;99.90;;;;;;6127867;29;20286;-67
2022/11/02 02:10:33;;;;;;;5.50;5.05;;;11.80;99.90;;;;;;6118971;29;20268;-67
2022/11/02 02:13:41;;;;;;;6.25;5.63;;;11.80;99.90;;;;;;6104289;29;20272;-67
2022/11/02 02:17:04;;;;;;;9.20;5.35;;;11.80;99.90;;;;;;6103858;29;20272;-67
2022/11/02 02:20:26;;;;;;;7.40;5.82;;;11.80;99.90;;;;;;6104411;29;20572;-67
2022/11/02 02:23:54;;;;;;;6.32;5.60;;;11.80;99.90;;;;;;6103615;29;20271;-67
2022/11/02 02:27:11;;;;;;;7.05;5.60;;;11.80;99.90;;;;;;6120146;29;20277;-67
2022/11/02 02:30:17;;;;;;;6.43;5.78;;;11.80;99.90;;;;;;6104010;29;20272;-67
2022/11/02 02:33:29;;;;;;;14.70;6.70;;;11.80;99.90;;;;;;6119947;29;20342;-67
2022/11/02 02:36:40;;;;;;;9.48;6.43;;;11.80;99.90;;;;;;6103925;29;20560;-67
2022/11/02 02:39:51;;;;;;;6.85;6.10;;;11.70;99.90;;;;;;6120108;29;20276;-67
2022/11/02 02:43:00;;;;;;;8.23;6.25;;;11.80;99.90;;;;;;6103183;29;20272;-67
2022/11/02 02:46:10;;;;;;;11.15;6.70;;;11.70;99.90;;;;;;6120396;29;20276;-66
2022/11/02 02:49:21;;;;;;;13.57;7.32;;;11.80;99.90;;;;;;6119913;29;20381;-67
2022/11/02 02:52:27;;;;;;;7.97;6.60;;;11.80;99.90;;;;;;6120041;29;20280;-67
2022/11/02 02:55:38;;;;;;;9.05;6.18;;;11.80;99.90;;;;;;6103021;29;20271;-66
2022/11/02 02:58:51;;;;;;;9.15;6.38;;;11.80;99.90;;;;;;6102504;29;20277;-67
2022/11/02 03:01:57;;;;;;;12.57;6.30;;;11.80;99.90;;;;;;6119378;29;20268;-67
2022/11/02 03:05:02;;;;;;;10.32;6.72;;;11.80;99.90;;;;;;6102828;29;20279;-67
2022/11/02 03:08:11;;;;;;;8.77;6.55;;;11.90;99.90;;;;;;6119619;29;20295;-66
2022/11/02 03:11:19;;;;;;;8.65;6.53;;;11.90;99.90;;;;;;6109261;29;20305;-67
2022/11/02 03:14:38;;;;;;;7.72;6.43;;;11.90;99.90;;;;;;6102752;29;20272;-68
2022/11/02 03:17:55;;;;;;;6.85;6.15;;;11.90;99.90;;;;;;6119802;29;20277;-67
2022/11/02 03:21:07;;;;;;;7.03;6.30;;;12.00;99.90;;;;;;6117914;29;20275;-66
2022/11/02 03:24:16;;;;;;;8.40;6.22;;;12.00;99.90;;;;;;6102928;29;20305;-68
2022/11/02 03:27:28;;;;;;;8.07;6.45;;;12.00;99.90;;;;;;6102167;29;20272;-66
2022/11/02 03:30:38;;;;;;;6.20;5.60;;;12.00;99.90;;;;;;6119127;29;20292;-66
2022/11/02 03:33:51;;;;;;;7.07;5.85;;;12.00;99.90;;;;;;6102435;29;20323;-66
2022/11/02 03:37:01;;;;;;;7.30;6.30;;;12.10;99.90;;;;;;6119146;29;20459;-66
2022/11/02 03:40:10;;;;;;;12.32;6.70;;;12.10;99.90;;;;;;6102131;29;20275;-66
2022/11/02 03:43:18;;;;;;;7.80;6.20;;;12.00;99.90;;;;;;6102411;29;20275;-66
2022/11/02 03:46:25;;;;;;;8.43;5.93;;;12.00;99.90;;;;;;6102321;29;20268;-66
2022/11/02 03:49:32;;;;;;;9.57;6.05;;;12.00;99.90;;;;;;6119025;29;20291;-66
2022/11/02 03:52:41;;;;;;;8.88;6.43;;;12.00;99.90;;;;;;6102151;29;20272;-66
2022/11/02 03:55:50;;;;;;;7.32;6.20;;;12.00;99.90;;;;;;6101753;29;20578;-67
2022/11/02 03:58:57;;;;;;;9.05;6.10;;;12.00;99.90;;;;;;6101737;29;20275;-67
2022/11/02 04:02:02;;;;;;;7.45;6.70;;;12.10;99.90;;;;;;6101703;29;20272;-68
2022/11/02 04:05:11;;;;;;;8.25;5.80;;;12.10;99.90;;;;;;6118465;29;20272;-65
2022/11/02 04:08:23;;;;;;;11.15;5.57;;;12.10;99.90;;;;;;6101301;29;20272;-67
2022/11/02 04:15:00;;;;;;;6.18;5.57;;;12.10;99.90;;;;;;6101327;29;20271;-67
2022/11/02 04:21:29;;;;;;;7.97;5.95;;;12.10;99.90;;;;;;6100971;29;20275;-66
2022/11/02 04:28:07;;;;;;;5.53;4.85;;;12.00;99.90;;;;;;6101109;29;20272;-66
2022/11/02 04:31:18;;;;;;;11.80;5.32;;;12.10;99.90;;;;;;6117909;29;20465;-66
2022/11/02 04:34:22;;;;;;;10.68;6.20;;;12.00;99.90;;;;;;6117728;29;20275;-66
2022/11/02 04:41:40;;;;;;;8.85;5.72;;;12.00;99.90;;;;;;6117955;29;20284;-67
2022/11/02 04:44:16;;;;;;;8.77;5.13;;;12.00;99.90;;;;;;6117379;29;20568;-66
2022/11/02 04:47:27;;;;;;;14.30;5.20;;;12.00;99.90;;;;;;6100617;29;20551;-66
2022/11/02 04:50:32;;;;;;;8.13;5.45;;;11.90;99.90;;;;;;6100772;29;20283;-67
2022/11/02 04:53:39;;;;;;;10.55;5.43;;;12.00;99.90;;;;;;6100526;29;20268;-67
2022/11/02 04:56:46;;;;;;;7.60;5.03;;;12.00;99.90;;;;;;6100805;29;20271;-67
2022/11/02 04:59:52;;;;;;;11.27;5.43;;;12.00;99.90;;;;;;6100226;29;20295;-67
2022/11/02 05:02:57;;;;;;;13.52;5.60;;;12.00;99.90;;;;;;6100421;29;20326;-67
2022/11/02 05:06:03;;;;;;;7.50;4.93;;;12.00;99.90;;;;;;6100067;29;20279;-66
2022/11/02 05:09:10;;;;;;;6.53;4.75;;;12.00;99.90;;;;;;6100281;29;20287;-67
2022/11/02 05:12:19;;;;;;;11.45;5.22;;;12.00;99.90;;;;;;6114212;29;20292;-66
2022/11/02 05:15:29;;;;;;;7.50;4.97;;;12.00;99.90;;;;;;6116064;29;20272;-66
2022/11/02 05:18:36;;;;;;;10.63;5.38;;;12.10;99.90;;;;;;6116240;29;20276;-66
2022/11/02 05:21:41;;;;;;;7.85;5.45;;;12.00;99.90;;;;;;6117174;29;20275;-67
2022/11/02 05:24:47;;;;;;;11.05;5.38;;;12.00;99.90;;;;;;6115986;29;20271;-67
2022/11/02 05:27:52;;;;;;;10.45;5.78;;;11.90;99.90;;;;;;6115399;29;20563;-67
2022/11/02 05:30:59;;;;;;;12.68;5.22;;;12.00;99.90;;;;;;6115444;29;20375;-67
2022/11/02 05:34:05;;;;;;;8.57;5.45;;;12.00;99.90;;;;;;6092333;29;20428;-66
2022/11/02 05:37:11;;;;;;;10.70;4.95;;;11.90;99.90;;;;;;6091979;29;20272;-67
2022/11/02 05:40:17;;;;;;;11.55;5.03;;;11.90;99.90;;;;;;6093596;29;20272;-69
2022/11/02 05:43:22;;;;;;;7.95;4.70;;;12.00;99.90;;;;;;6076313;29;20275;-67
2022/11/02 05:46:28;;;;;;;10.82;5.50;;;11.90;99.90;;;;;;6091791;29;20272;-67
2022/11/02 05:49:33;;;;;;;7.47;5.35;;;11.90;99.90;;;;;;6093208;29;20292;-67
2022/11/02 05:52:38;;;;;;;14.07;5.55;;;11.90;99.90;;;;;;6093032;29;20268;-67
2022/11/02 05:55:44;;;;;;;15.75;5.47;;;11.90;99.90;;;;;;6093198;29;20272;-67
2022/11/02 05:58:50;;;;;;;18.33;5.80;;;11.90;99.90;;;;;;6092588;29;20553;-67
2022/11/02 06:01:56;;;;;;;8.88;5.72;;;11.90;99.90;;;;;;6092525;29;20281;-67
2022/11/02 06:05:01;;;;;;;11.45;6.30;;;11.90;99.90;;;;;;6091998;29;20276;-66
2022/11/02 06:08:06;;;;;;;12.18;5.65;;;12.00;99.90;;;;;;6092846;29;20459;-67
2022/11/02 06:11:14;;;;;;;10.65;5.18;;;11.90;99.90;;;;;;6106310;29;20303;-68
2022/11/02 06:14:19;;;;;;;11.95;4.72;;;11.90;99.90;;;;;;6116581;29;20276;-68
2022/11/02 06:17:23;;;;;;;12.43;5.28;;;11.80;99.90;;;;;;6115706;29;20292;-66
2022/11/02 06:20:28;;;;;;;13.43;5.60;;;11.80;99.90;;;;;;6116104;29;20276;-67
2022/11/02 06:23:33;;;;;;;11.13;5.43;;;11.90;99.90;;;;;;6115994;29;20268;-67
2022/11/02 06:26:40;;;;;;;11.52;5.70;;;11.70;99.90;;;;;;6116009;29;20292;-67
2022/11/02 06:29:44;;;;;;;11.43;5.80;;;11.80;99.90;;;;;;6116252;29;20276;-66
2022/11/02 06:32:50;;;;;;;15.65;5.72;;;11.90;99.90;;;;;;6119149;29;20564;-67
2022/11/02 06:35:55;;;;;;;19.08;5.78;;;11.90;99.90;;;;;;6120712;29;20288;-67
2022/11/02 06:39:00;;;;;;;12.55;5.22;;;11.90;99.90;;;;;;6120347;29;20271;-66
2022/11/02 06:42:07;;;;;;;14.30;5.60;;;11.80;99.90;;;;;;6119920;29;20568;-67
2022/11/02 06:45:12;;;;;;;12.60;4.93;;;11.80;99.90;;;;;;6119671;29;20555;-67
2022/11/02 06:48:17;;;;;;;13.63;5.65;;;11.90;99.90;;;;;;6120135;29;20272;-66
2022/11/02 06:51:22;;;;;;;13.85;5.50;;;11.90;99.90;;;;;;6119982;29;20292;-67
2022/11/02 06:54:27;;;;;;;18.75;6.50;;;11.90;99.90;;;;;;6120041;29;20268;-67
2022/11/02 06:57:38;;;;;;;10.13;5.55;;;11.90;99.90;;;;;;6120015;29;20294;-67
2022/11/02 07:00:42;;;;;;;15.98;6.25;;;11.90;99.90;;;;;;6120042;29;20272;-67
2022/11/02 07:03:47;;;;;;;9.18;6.15;;;11.90;99.90;;;;;;6119895;29;20272;-68
2022/11/02 07:06:52;;;;;;;12.75;7.00;;;11.90;99.90;;;;;;6119805;29;20462;-67
2022/11/02 07:09:57;;;;;;;14.68;7.45;;;12.00;99.90;;;;;;6119236;29;20264;-66
2022/11/02 07:13:03;;;;;;;22.10;6.88;;;12.00;99.90;;;;;;6139106;29;20319;-66
2022/11/02 07:16:12;;;;;;;26.35;7.43;;;12.00;99.90;;;;;;6142583;29;20464;-67
2022/11/02 07:19:17;;;;;;;14.48;6.43;;;12.00;99.90;;;;;;6142889;29;20267;-68
2022/11/02 07:22:22;;;;;;;9.07;5.70;;;11.90;99.90;;;;;;6143078;29;20274;-66
2022/11/02 07:25:30;;;;;;;14.23;6.55;;;12.00;99.90;;;;;;6142855;29;20271;-67
2022/11/02 07:28:37;;;;;;;27.20;7.13;;;11.90;99.90;;;;;;6142511;29;20279;-67
2022/11/02 07:31:42;;;;;;;17.33;6.60;;;11.90;99.90;;;;;;6142525;29;20287;-66
2022/11/02 07:34:46;;;;;;;10.80;6.22;;;11.90;99.90;;;;;;6142148;29;20275;-66
2022/11/02 07:37:59;;;;;;;20.10;6.65;;;11.90;99.90;;;;;;6142556;29;20267;-67
2022/11/02 07:41:04;;;;;;;18.88;6.90;;;11.90;99.90;;;;;;6142748;29;20274;-66
2022/11/02 07:44:13;;;;;;;11.18;5.63;;;11.90;99.90;;;;;;6141569;29;20267;-66
2022/11/02 07:47:30;;;;;;;14.48;6.10;;;11.80;99.90;;;;;;6142431;29;20271;-67
2022/11/02 07:50:35;;;;;;;14.80;5.97;;;11.90;99.90;;;;;;6142022;29;20267;-67
2022/11/02 07:53:40;;;;;;;9.43;5.32;;;11.90;99.90;;;;;;6142106;29;20451;-67
2022/11/02 07:56:45;;;;;;;11.38;6.03;;;11.90;99.90;;;;;;6142237;29;20271;-67
2022/11/02 07:59:51;;;;;;;12.93;5.45;;;12.00;99.90;;;;;;6141820;29;20275;-68
2022/11/02 08:02:58;;;;;;;12.25;5.40;;;12.00;99.90;;;;;;6142075;29;20279;-67
2022/11/02 08:06:03;;;;;;;11.27;5.82;;;12.10;99.90;;;;;;6141389;29;20452;-67
2022/11/02 08:09:08;;;;;;;12.38;6.20;;;12.00;99.90;;;;;;6141476;29;20272;-67
2022/11/02 08:12:13;;;;;;;15.27;7.32;;;11.90;99.90;;;;;;6119535;29;20603;-67
2022/11/02 08:15:19;;;;;;;13.23;6.25;;;11.90;99.90;;;;;;6118315;29;20267;-68
2022/11/02 08:18:26;;;;;;;11.43;5.53;;;11.90;99.90;;;;;;6118031;29;20532;-67
2022/11/02 08:21:31;;;;;;;9.85;5.72;;;11.90;99.90;;;;;;6117576;29;20280;-67
2022/11/02 08:24:36;;;;;;;11.50;5.50;;;11.70;99.90;;;;;;6117468;29;20272;-67
2022/11/02 08:27:41;;;;;;;14.02;5.93;;;11.90;99.90;;;;;;6117569;29;20277;-67
2022/11/02 08:30:48;;;;;;;10.13;5.78;;;11.90;99.90;;;;;;6117681;29;20275;-67
2022/11/02 08:33:53;;;;;;;10.25;5.80;;;11.90;99.90;;;;;;6117635;29;20456;-67
2022/11/02 08:36:58;;;;;;;13.23;5.95;;;11.90;99.90;;;;;;6117865;29;20311;-66
2022/11/02 08:40:03;;;;;;;10.48;5.90;;;11.90;99.90;;;;;;6117668;29;20272;-67
2022/11/02 08:43:12;;;;;;;12.65;6.75;;;12.00;99.90;;;;;;6117656;29;20280;-67
2022/11/02 08:46:18;;;;;;;14.32;6.30;;;12.00;99.90;;;;;;6100853;29;20280;-67
2022/11/02 08:49:22;;;;;;;9.77;6.13;;;11.90;99.90;;;;;;6116984;29;20271;-67
2022/11/02 08:52:27;;;;;;;10.73;5.15;;;12.00;99.90;;;;;;6117160;29;20287;-67
2022/11/02 08:55:32;;;;;;;9.52;5.55;;;12.00;99.90;;;;;;6117028;29;20268;-68
2022/11/02 08:58:37;;;;;;;14.45;5.40;;;12.20;99.90;;;;;;6117168;29;20267;-68
2022/11/02 09:01:43;;;;;;;8.45;5.65;;;12.20;99.90;;;;;;6116853;29;20272;-68
2022/11/02 09:04:48;;;;;;;8.18;4.95;;;12.20;99.90;;;;;;6117167;29;20271;-68
2022/11/02 09:07:56;;;;;;;8.98;5.07;;;12.30;99.90;;;;;;6116872;29;20271;-68
2022/11/02 09:11:03;;;;;;;7.43;5.35;;;12.30;99.90;;;;;;6128744;29;20291;-67
2022/11/02 09:14:08;;;;;;;12.60;5.35;;;12.30;99.90;;;;;;6140692;29;20291;-66
2022/11/02 09:17:14;;;;;;;6.68;5.40;;;12.30;99.90;;;;;;6140565;29;20479;-67
2022/11/02 09:20:20;;;;;;;8.27;4.78;;;12.30;99.90;;;;;;6140030;29;20271;-68
2022/11/02 09:23:25;;;;;;;7.85;5.22;;;12.40;99.90;;;;;;6140006;29;20270;-67
2022/11/02 09:26:30;;;;;;;7.70;5.03;;;12.30;99.90;;;;;;6140251;29;20274;-67
2022/11/02 09:29:35;;;;;;;10.63;6.38;;;12.40;99.90;;;;;;6139768;29;20267;-67
2022/11/02 09:32:41;;;;;;;14.25;5.85;;;12.40;99.90;;;;;;6140134;29;20476;-66
2022/11/02 09:35:48;;;;;;;6.13;5.43;;;12.40;99.90;;;;;;6140188;29;20267;-66
2022/11/02 09:38:53;;;;;;;7.57;5.40;;;12.30;99.90;;;;;;6139848;29;20271;-67
2022/11/02 09:42:07;;;;;;;10.65;5.18;;;12.40;99.90;;;;;;6140226;29;20465;-67
2022/11/02 09:45:16;;;;;;;8.90;5.25;;;12.40;99.90;;;;;;6139867;29;20270;-67
2022/11/02 09:48:27;;;;;;;7.07;5.50;;;12.40;99.90;;;;;;6139992;29;20451;-67
2022/11/02 09:51:37;;;;;;;7.40;5.32;;;12.40;99.90;;;;;;6139908;29;20456;-67
2022/11/02 09:54:47;;;;;;;8.73;5.57;;;12.50;99.90;;;;;;6139814;29;20279;-68
2022/11/02 09:57:58;;;;;;;9.82;5.40;;;12.50;99.90;;;;;;6139820;29;20511;-68
2022/11/02 10:01:14;;;;;;;7.85;5.18;;;12.50;99.90;;;;;;6139588;29;20296;-67
2022/11/02 10:04:48;;;;;;;6.05;5.45;;;12.50;99.90;;;;;;6139811;29;20291;-67
2022/11/02 10:08:22;;;;;;;9.38;4.82;;;12.50;99.90;;;;;;6143067;29;20443;-68
2022/11/02 10:11:39;;;;;;;9.95;5.78;;;12.60;99.90;;;;;;6128670;29;20458;-67
2022/11/02 10:14:55;;;;;;;5.68;5.18;;;12.60;99.90;;;;;;6121090;29;20312;-67
2022/11/02 10:18:00;;;;;;;7.00;5.15;;;12.50;99.90;;;;;;6120672;29;20556;-67
2022/11/02 10:21:12;;;;;;;10.30;5.53;;;12.50;99.90;;;;;;6120775;29;20268;-66
2022/11/02 10:24:25;;;;;;;7.65;5.40;;;12.50;99.90;;;;;;6103395;29;20587;-67
2022/11/02 10:27:33;;;;;;;9.80;5.80;;;12.60;99.90;;;;;;6120327;29;20271;-68
2022/11/02 10:30:38;;;;;;;6.82;5.47;;;12.60;99.90;;;;;;6120634;29;20277;-67
2022/11/02 10:33:43;;;;;;;7.78;5.05;;;12.60;99.90;;;;;;6120133;29;20288;-67
2022/11/02 10:37:03;;;;;;;5.95;5.15;;;12.70;99.90;;;;;;6120431;29;20276;-67
2022/11/02 10:40:19;;;;;;;5.28;4.80;;;12.70;99.90;;;;;;6119818;29;20458;-67
2022/11/02 10:43:36;;;;;;;7.43;5.32;;;12.70;99.90;;;;;;6120352;29;20280;-67
2022/11/02 10:46:52;;;;;;;7.53;5.10;;;12.70;99.90;;;;;;6120369;29;20273;-68
2022/11/02 10:50:14;;;;;;;6.88;4.50;;;12.70;99.90;;;;;;6119839;29;20271;-67
2022/11/02 10:53:21;;;;;;;13.88;5.07;;;12.80;99.90;;;;;;6119502;29;20300;-67
2022/11/02 10:56:47;;;;;;;6.47;4.60;;;12.60;99.90;;;;;;6119420;29;20287;-67
2022/11/02 11:00:23;;;;;;;11.95;4.65;;;12.70;99.90;;;;;;6119428;29;20272;-69
2022/11/02 11:03:28;;;;;;;7.03;4.45;;;12.80;99.90;;;;;;6120066;29;20275;-66
2022/11/02 11:06:37;;;;;;;9.25;4.75;;;12.80;99.90;;;;;;6102471;29;20493;-67
2022/11/02 11:09:50;;;;;;;12.18;4.50;;;12.70;99.90;;;;;;6121459;29;20289;-67
2022/11/02 11:12:56;;;;;;;8.77;4.15;;;12.70;99.90;;;;;;6142154;29;20578;-66
2022/11/02 11:16:02;;;;;;;9.73;4.13;;;12.80;99.90;;;;;;6141258;29;20271;-67
2022/11/02 11:19:20;;;;;;;6.95;4.00;;;12.90;99.90;;;;;;6141775;29;20360;-67
2022/11/02 11:22:40;;;;;;;16.83;4.68;;;12.90;99.90;;;;;;6141308;29;20289;-67
2022/11/02 11:25:58;;;;;;;9.10;3.92;;;12.80;99.90;;;;;;6141225;29;20271;-67
2022/11/02 11:29:03;;;;;;;5.43;3.70;;;12.80;99.90;;;;;;6141684;29;20272;-67
2022/11/02 11:32:17;;;;;;;6.85;3.72;;;12.90;99.90;;;;;;6141697;29;20271;-67
2022/11/02 11:35:22;;;;;;;4.82;3.50;;;12.90;99.90;;;;;;6141342;29;20291;-67
2022/11/02 11:38:27;;;;;;;5.72;3.47;;;12.90;99.90;;;;;;6141760;29;20272;-67
2022/11/02 11:41:34;;;;;;;6.20;3.78;;;12.90;99.90;;;;;;6141411;29;20271;-67
2022/11/02 11:44:39;;;;;;;11.60;4.05;;;12.90;99.90;;;;;;6141570;29;20279;-67
2022/11/02 11:47:43;;;;;;;7.22;3.70;;;12.90;99.90;;;;;;6140760;29;20272;-67
2022/11/02 11:50:49;;;;;;;8.32;3.67;;;12.90;99.90;;;;;;6141043;29;20267;-67
2022/11/02 11:54:29;;;;;;;4.68;4.07;;;12.90;99.90;;;;;;6140927;29;20451;-66
2022/11/02 11:57:35;;;;;;;7.05;4.00;;;12.80;99.90;;;;;;6136959;29;20276;-67
2022/11/02 12:00:42;;;;;;;7.20;4.20;;;12.90;99.90;;;;;;6141266;29;20271;-68
2022/11/02 12:03:52;;;;;;;5.53;3.85;;;12.90;99.90;;;;;;6140863;29;20279;-68
2022/11/02 12:07:35;;;;;;;8.93;4.28;;;12.90;99.90;;;;;;6141028;29;20271;-67
2022/11/02 12:10:57;;;;;;;10.37;4.00;;;12.90;99.90;;;;;;6092212;29;1157838;-68
2022/11/02 12:14:16;;;;;;;13.30;3.80;;;12.80;99.90;;;;;;6118725;29;20296;-68
2022/11/02 12:17:36;;;;;;;12.10;4.78;;;12.80;99.90;;;;;;6118494;29;20275;-66
2022/11/02 12:20:56;;;;;;;6.57;4.15;;;12.90;99.90;;;;;;6118265;29;20272;-67
2022/11/02 12:24:36;;;;;;;7.00;3.70;;;13.00;99.90;;;;;;6117760;29;20292;-67
2022/11/02 12:27:50;;;;;;;7.65;3.92;;;12.90;99.90;;;;;;6117492;29;20277;-67
2022/11/02 12:31:06;;;;;;;9.50;4.57;;;12.90;99.90;;;;;;6116726;29;20276;-67
2022/11/02 12:34:49;;;;;;;11.27;4.72;;;12.90;99.90;;;;;;6117345;29;20292;-66
2022/11/02 12:38:39;;;;;;;10.18;4.32;;;12.90;99.90;;;;;;6117696;29;20281;-66
2022/11/02 12:42:03;;;;;;;9.60;4.05;;;12.80;99.90;;;;;;6117679;29;20272;-66
2022/11/02 12:45:23;;;;;;;13.93;4.88;;;12.90;99.90;;;;;;6117189;29;20280;-66
2022/11/02 12:48:39;;;;;;;10.88;4.50;;;12.80;99.90;;;;;;6117169;29;20272;-66
2022/11/02 12:51:51;;;;;;;9.05;4.20;;;12.90;99.90;;;;;;6117610;29;20291;-66
2022/11/02 12:54:57;;;;;;;9.93;4.57;;;13.00;99.90;;;;;;6116944;29;20326;-68
2022/11/02 12:58:07;;;;;;;10.50;4.40;;;13.00;99.90;;;;;;6117430;29;20442;-68
2022/11/02 13:01:21;;;;;;;16.10;4.75;;;12.90;99.90;;;;;;6117491;29;20579;-68
2022/11/02 13:04:32;;;;;;;13.82;4.65;;;12.90;99.90;;;;;;6116828;29;20275;-67
2022/11/02 13:07:47;;;;;;;9.48;4.57;;;12.90;99.90;;;;;;6116654;29;20272;-66
2022/11/02 13:10:54;;;;;;;17.98;4.82;;;12.90;99.90;;;;;;6127182;29;20264;-67
2022/11/02 13:14:00;;;;;;;17.73;5.28;;;12.90;99.90;;;;;;6140663;29;20271;-67
2022/11/02 13:17:14;;;;;;;14.13;5.20;;;12.90;99.90;;;;;;6140444;29;20271;-67
2022/11/02 13:20:24;;;;;;;15.25;5.50;;;12.90;99.90;;;;;;6140701;29;20271;-66
2022/11/02 13:23:35;;;;;;;16.13;5.20;;;12.80;99.90;;;;;;6140362;29;20275;-67
2022/11/02 13:26:41;;;;;;;12.10;5.25;;;12.90;99.90;;;;;;6123814;29;20279;-66
2022/11/02 13:29:49;;;;;;;18.10;5.32;;;12.80;99.90;;;;;;6140484;29;20283;-66
2022/11/02 13:32:59;;;;;;;15.65;5.40;;;12.70;99.90;;;;;;6140633;29;20275;-68
2022/11/02 13:36:07;;;;;;;10.70;4.63;;;12.70;99.90;;;;;;6140254;29;20294;-68
2022/11/02 13:39:17;;;;;;;16.20;5.72;;;12.60;99.90;;;;;;6139954;29;20467;-68
2022/11/02 13:42:49;;;;;;;18.60;6.07;;;12.70;99.90;;;;;;6138871;29;20272;-66
2022/11/02 13:46:20;;;;;;;13.98;6.05;;;12.60;99.90;;;;;;6139883;29;20271;-67
2022/11/02 13:49:29;;;;;;;16.40;5.45;;;12.50;99.90;;;;;;6140248;29;20271;-67
2022/11/02 13:52:40;;;;;;;13.43;5.95;;;12.50;99.90;;;;;;6140329;29;20547;-67
2022/11/02 13:55:49;;;;;;;25.77;5.72;;;12.50;99.90;;;;;;6139904;29;20295;-67
2022/11/02 13:58:58;;;;;;;15.13;6.13;;;12.50;99.90;;;;;;6140145;29;20297;-67
2022/11/02 14:02:06;;;;;;;13.93;5.85;;;12.50;99.90;;;;;;6139713;29;20272;-67
2022/11/02 14:05:23;;;;;;;14.50;6.18;;;12.50;99.90;;;;;;6139960;29;20283;-67
2022/11/02 14:08:34;;;;;;;19.23;6.72;;;12.40;99.90;;;;;;6139749;29;20287;-68
2022/11/02 14:11:48;;;;;;;17.58;5.78;;;12.40;99.90;;;;;;6122644;29;20293;-67
2022/11/02 14:15:47;;;;;;;15.10;6.10;;;12.40;99.90;;;;;;6116579;29;20292;-67
2022/11/02 14:19:24;;;;;;;15.05;6.30;;;12.40;99.90;;;;;;6115870;29;20271;-66
2022/11/02 14:22:30;;;;;;;17.73;6.55;;;12.30;99.90;;;;;;6115932;29;20456;-67
2022/11/02 14:25:48;;;;;;;18.75;6.55;;;12.30;99.90;;;;;;6115702;29;20276;-67
2022/11/02 14:28:52;;;;;;;13.13;6.03;;;12.30;99.90;;;;;;6116295;29;20272;-67
2022/11/02 14:32:01;;;;;;;12.45;6.45;;;12.30;99.90;;;;;;6116392;29;20268;-67
2022/11/02 14:35:19;;;;;;;19.67;5.88;;;12.30;99.90;;;;;;6115392;29;20299;-66
2022/11/02 14:38:52;;;;;;;17.42;6.70;;;12.20;99.90;;;;;;6115580;29;20280;-67
2022/11/02 14:42:21;;;;;;;19.77;7.35;;;12.20;99.90;;;;;;6115855;29;20580;-67
2022/11/02 14:45:39;;;;;;;17.08;7.32;;;12.20;99.90;;;;;;6115802;29;20271;-67
2022/11/02 14:48:46;;;;;;;19.05;7.45;;;12.10;99.90;;;;;;6116052;29;20268;-66
2022/11/02 14:52:01;;;;;;;19.40;7.47;;;12.10;99.90;;;;;;6116054;29;20288;-67
2022/11/02 14:55:21;;;;;;;21.42;7.90;;;12.00;99.90;;;;;;6120124;29;20591;-66
2022/11/02 14:58:33;;;;;;;17.77;8.10;;;12.00;99.90;;;;;;6119564;29;20272;-67
2022/11/02 15:01:50;;;;;;;25.50;8.27;;;12.00;99.90;;;;;;6120383;29;20455;-67
2022/11/02 15:04:57;;;;;;;28.10;7.70;;;11.90;99.90;;;;;;6119817;29;20371;-68
2022/11/02 15:08:05;;;;;;;19.90;7.45;;;11.90;99.90;;;;;;6119865;29;20452;-68
2022/11/02 15:11:43;;;;;;;18.85;7.63;;;11.80;99.90;;;;;;6132590;29;20272;-67
2022/11/02 15:15:33;;;;;;;18.42;8.02;;;11.80;99.90;;;;;;6143432;29;20276;-67
2022/11/02 15:18:39;;;;;;;19.55;7.60;;;11.90;99.90;;;;;;6142966;29;20582;-67
2022/11/02 15:21:44;;;;;;;20.38;7.40;;;11.80;99.90;;;;;;6143095;29;20460;-67
2022/11/02 15:24:50;;;;;;;18.70;7.63;;;11.80;99.90;;;;;;6143216;29;20271;-66
2022/11/02 15:28:02;;;;;;;24.23;8.10;;;11.80;99.90;;;;;;6142843;29;20276;-67
2022/11/02 15:31:18;;;;;;;16.05;7.30;;;11.90;99.90;;;;;;6142265;29;20291;-67
2022/11/02 15:34:35;;;;;;;23.35;8.13;;;11.90;99.90;;;;;;6142542;29;20275;-68
2022/11/02 15:37:40;;;;;;;13.98;7.68;;;11.90;99.90;;;;;;6142681;29;20300;-67
2022/11/02 15:41:18;;;;;;;16.88;7.38;;;11.90;99.90;;;;;;6142623;29;20272;-67
2022/11/02 15:45:03;;;;;;;16.95;7.28;;;11.90;99.90;;;;;;6142653;29;20279;-67
2022/11/02 15:48:40;;;;;;;25.85;7.28;;;11.90;99.90;;;;;;6142750;29;20270;-66
2022/11/02 15:51:50;;;;;;;15.13;7.20;;;11.90;99.90;;;;;;6142581;29;20272;-67
2022/11/02 15:55:03;;;;;;;20.50;7.82;;;11.90;99.90;;;;;;6142334;29;20286;-66
2022/11/02 15:58:20;;;;;;;16.75;6.75;;;11.90;99.90;;;;;;6141751;29;20295;-66
2022/11/02 16:01:26;;;;;;;15.52;6.75;;;11.90;99.90;;;;;;6141841;29;20567;-67
2022/11/02 16:04:34;;;;;;;19.80;6.75;;;11.90;99.90;;;;;;6140817;29;20271;-66
2022/11/02 16:07:42;;;;;;;16.67;6.88;;;12.00;99.90;;;;;;6141658;29;20279;-67
2022/11/02 16:11:16;;;;;;;14.55;6.85;;;11.90;99.90;;;;;;6128940;29;20522;-67
2022/11/02 16:14:21;;;;;;;13.77;6.72;;;11.90;99.90;;;;;;6118143;29;20454;-67
2022/11/02 16:17:28;;;;;;;16.58;6.63;;;11.90;99.90;;;;;;6117916;29;20292;-67
2022/11/02 16:20:38;;;;;;;17.25;6.63;;;11.90;99.90;;;;;;6118246;29;20268;-67
2022/11/02 16:23:47;;;;;;;20.65;6.68;;;11.90;99.90;;;;;;6117897;29;20284;-66
2022/11/02 16:26:53;;;;;;;20.60;6.93;;;11.90;99.90;;;;;;6109874;29;20271;-68
2022/11/02 16:29:58;;;;;;;14.85;6.88;;;11.90;99.90;;;;;;6117638;29;20272;-67
2022/11/02 16:33:03;;;;;;;15.82;6.70;;;11.90;99.90;;;;;;6117963;29;20267;-67
2022/11/02 16:36:14;;;;;;;17.70;6.75;;;11.90;99.90;;;;;;6117936;29;20606;-67